logo
Rechercher aéroport 
image banner adimage banner adimage banner ad
image banner ad

CA04 - Flying N Ranch

Situé à Cottonwood, United States

ICAO - CA04, IATA -

Données fournies par Airmate  

Information générale

Coordonnées: N40°20'47" W122°20'20"
Élévation : 530 feet MSL.
Variation magnétique : 17° East
Voir autres Aéroports à California

Données opérationnelles

Special qualification required
Heure actuelle UTC:
Heure actuelle locale:
Météo à : KRDD - Redding Muni ( 18 km )
METAR: KRDD 261453Z 28003KT 10SM CLR 18/12 A2995 RMK AO2 SLP136 T01780117 53012
TAF: KRDD 261120Z 2612/2712 VRB04KT P6SM SKC FM262100 18007KT P6SM SKC FM270100 VRB04KT P6SM SKC
Voir NOTAMs / SUP AIP / TFR affectant cet aéroport [VIEW]
Fréquences de communication: [VIEW]

Pistes:

Identifiant RWYQFULongueur (ft)Largeur (ft)SurfaceLDA (ft)
162600150GRASS
342600150GRASS

Coordonnées de l'aéroport

Adresse: Cottonwood United States

Vue satellite de CA04